Time;durP1;ratioP1;P1;durP2;ratioP2;P2;SDS_P1;SDS_P2;PMS_P1;PMS_P2;Temp;Humidity;BMP_temperature;BMP_pressure;BME280_temperature;BME280_humidity;BME280_pressure;Samples;Min_cycle;Max_cycle;Signal;HPM_P1;HPM_P2
2022/07/29 00:01:20;;;;;;;4.85;3.55;;;18.20;99.90;;;;;;5072540;28;20416;-75
2022/07/29 00:03:46;;;;;;;4.40;3.70;;;18.20;99.90;;;;;;5068144;28;20148;-74
2022/07/29 00:06:12;;;;;;;3.90;3.35;;;18.30;99.90;;;;;;5071883;28;20040;-76
2022/07/29 00:08:37;;;;;;;3.80;3.03;;;18.20;99.90;;;;;;5071091;28;20028;-74
2022/07/29 00:11:03;;;;;;;4.07;3.38;;;18.20;99.90;;;;;;5072214;28;20101;-74
2022/07/29 00:13:29;;;;;;;4.60;3.15;;;18.10;99.90;;;;;;5070921;28;20502;-74
2022/07/29 00:15:55;;;;;;;4.28;3.05;;;18.10;99.90;;;;;;5072073;28;20025;-75
2022/07/29 00:18:20;;;;;;;3.40;3.10;;;18.20;99.90;;;;;;5082597;28;20040;-74
2022/07/29 00:20:46;;;;;;;2.92;2.63;;;18.10;99.90;;;;;;5092478;28;20103;-77
2022/07/29 00:23:12;;;;;;;3.10;2.53;;;18.20;99.90;;;;;;5092248;28;20028;-76
2022/07/29 00:25:37;;;;;;;3.92;3.03;;;18.20;99.90;;;;;;5092142;28;20477;-74
2022/07/29 00:28:03;;;;;;;4.78;3.10;;;18.20;99.90;;;;;;5091884;28;20546;-76
2022/07/29 00:30:29;;;;;;;4.57;3.33;;;18.10;99.90;;;;;;5092236;28;20024;-74
2022/07/29 00:32:54;;;;;;;4.40;3.28;;;18.10;99.90;;;;;;5092272;28;20031;-74
2022/07/29 00:38:04;;;;;;;3.38;3.00;;;18.00;99.90;;;;;;5092147;28;20490;-74
2022/07/29 00:40:30;;;;;;;3.15;2.85;;;18.00;99.90;;;;;;5091763;28;20024;-75
2022/07/29 00:42:55;;;;;;;5.97;3.25;;;18.00;99.90;;;;;;5085489;28;20990;-74
2022/07/29 00:45:24;;;;;;;3.63;3.22;;;18.00;99.90;;;;;;5091787;28;20071;-74
2022/07/29 00:47:50;;;;;;;4.60;3.08;;;18.00;99.90;;;;;;5090296;28;20443;-74
2022/07/29 00:50:16;;;;;;;4.30;3.42;;;18.00;99.90;;;;;;5091782;28;20077;-75
2022/07/29 00:52:42;;;;;;;7.25;3.20;;;17.90;99.90;;;;;;5092044;28;20099;-76
2022/07/29 00:55:11;;;;;;;3.72;3.17;;;17.90;99.90;;;;;;5091423;28;20036;-75
2022/07/29 00:57:37;;;;;;;3.75;3.03;;;17.90;99.90;;;;;;5092134;28;20039;-74
2022/07/29 01:00:05;;;;;;;3.92;3.33;;;17.90;99.90;;;;;;5091770;28;20024;-74
2022/07/29 01:02:30;;;;;;;4.85;3.50;;;17.90;99.90;;;;;;5080260;28;20111;-74
2022/07/29 01:04:57;;;;;;;4.72;3.50;;;17.90;99.90;;;;;;5073990;28;20099;-74
2022/07/29 01:07:27;;;;;;;4.38;3.50;;;17.90;99.90;;;;;;5091293;28;20036;-75
2022/07/29 01:09:54;;;;;;;6.05;3.28;;;17.80;99.90;;;;;;5091149;28;20024;-75
2022/07/29 01:12:24;;;;;;;5.82;3.30;;;17.80;99.90;;;;;;5075437;28;20024;-75
2022/07/29 01:14:50;;;;;;;3.88;3.58;;;17.90;99.90;;;;;;5091556;28;20038;-73
2022/07/29 01:17:26;;;;;;;4.75;3.67;;;17.90;99.90;;;;;;5089801;28;20107;-74
2022/07/29 01:20:04;;;;;;;5.60;3.75;;;17.80;99.90;;;;;;5071281;28;20447;-74
2022/07/29 01:23:06;;;;;;;5.00;2.80;;;17.80;99.90;;;;;;5070954;28;20124;-76
2022/07/29 01:25:38;;;;;;;5.05;3.58;;;17.90;99.90;;;;;;5069278;28;20842;-74
2022/07/29 01:28:22;;;;;;;3.58;3.15;;;17.80;99.90;;;;;;5071191;28;20498;-74
2022/07/29 01:30:51;;;;;;;4.65;3.53;;;17.70;99.90;;;;;;5064080;28;20021;-74
2022/07/29 01:36:14;;;;;;;5.07;3.40;;;17.80;99.90;;;;;;5071270;28;20039;-75
2022/07/29 01:38:42;;;;;;;8.85;4.38;;;17.80;99.90;;;;;;5061245;28;20115;-75
2022/07/29 01:41:16;;;;;;;4.95;3.53;;;17.80;99.90;;;;;;5061709;28;20070;-74
2022/07/29 01:43:53;;;;;;;6.78;3.38;;;17.90;99.90;;;;;;5070894;28;20021;-74
2022/07/29 01:46:31;;;;;;;3.70;3.40;;;17.90;99.90;;;;;;5070842;28;20463;-74
2022/07/29 01:49:04;;;;;;;3.55;3.25;;;17.90;99.90;;;;;;5064346;28;20131;-76
2022/07/29 01:51:57;;;;;;;3.55;3.25;;;17.90;99.90;;;;;;5070857;28;20497;-74
2022/07/29 01:54:47;;;;;;;3.65;3.00;;;18.00;99.90;;;;;;5071066;28;20028;-75
2022/07/29 01:57:17;;;;;;;3.95;3.22;;;18.00;99.90;;;;;;5065925;28;20040;-75
2022/07/29 01:59:45;;;;;;;3.63;3.30;;;18.00;99.90;;;;;;5070511;28;20017;-76
2022/07/29 02:02:13;;;;;;;3.97;3.67;;;18.00;99.90;;;;;;5070978;28;20124;-74
2022/07/29 02:04:42;;;;;;;3.63;3.33;;;18.00;99.90;;;;;;5070675;28;20024;-75
2022/07/29 02:07:13;;;;;;;3.42;3.10;;;18.00;99.90;;;;;;5070588;28;20537;-75
2022/07/29 02:09:41;;;;;;;4.38;3.45;;;18.00;99.90;;;;;;5070814;28;20039;-75
2022/07/29 02:12:07;;;;;;;4.07;3.67;;;18.00;99.90;;;;;;5070601;28;20031;-74
2022/07/29 02:14:44;;;;;;;7.32;3.47;;;18.00;99.90;;;;;;5070691;28;20033;-75
2022/07/29 02:17:11;;;;;;;3.65;3.35;;;18.00;99.90;;;;;;5071745;28;20021;-75
2022/07/29 02:19:38;;;;;;;4.40;2.90;;;18.00;99.90;;;;;;5101937;28;20055;-74
2022/07/29 02:22:05;;;;;;;3.90;3.45;;;18.00;99.90;;;;;;5112582;28;20023;-75
2022/07/29 02:24:32;;;;;;;6.63;3.10;;;18.00;99.90;;;;;;5106628;28;20039;-74
2022/07/29 02:26:59;;;;;;;3.40;3.10;;;18.00;99.90;;;;;;5094802;28;20027;-74
2022/07/29 02:29:28;;;;;;;5.88;4.13;;;18.00;99.90;;;;;;5109703;28;20035;-75
2022/07/29 02:31:55;;;;;;;3.58;3.20;;;18.00;99.90;;;;;;5111656;28;20042;-75
2022/07/29 02:34:21;;;;;;;3.78;3.47;;;18.00;99.90;;;;;;5103083;28;20166;-81
2022/07/29 02:36:49;;;;;;;4.10;3.70;;;17.90;99.90;;;;;;5102574;28;20523;-73
2022/07/29 02:39:16;;;;;;;3.20;2.90;;;18.00;99.90;;;;;;5108077;28;20383;-74
2022/07/29 02:41:41;;;;;;;4.40;3.13;;;17.90;99.90;;;;;;5105293;28;20028;-76
2022/07/29 02:44:16;;;;;;;5.20;3.88;;;18.00;99.90;;;;;;5107194;28;20046;-75
2022/07/29 02:47:12;;;;;;;5.00;3.35;;;17.90;99.90;;;;;;5079292;28;20068;-74
2022/07/29 02:49:45;;;;;;;;;;;17.90;99.90;;;;;;5084677;28;20036;-75
2022/07/29 02:52:27;;;;;;;4.45;3.20;;;17.90;99.90;;;;;;5102439;28;19915;-75
2022/07/29 02:55:00;;;;;;;8.68;3.55;;;17.80;99.90;;;;;;5102481;28;20104;-74
2022/07/29 02:57:33;;;;;;;3.70;2.72;;;17.90;99.90;;;;;;5094296;28;20024;-75
2022/07/29 03:00:06;;;;;;;3.50;3.13;;;17.90;99.90;;;;;;5104978;28;20024;-80
2022/07/29 03:02:36;;;;;;;4.68;3.35;;;18.00;99.90;;;;;;5114194;28;20341;-74
2022/07/29 03:05:04;;;;;;;5.80;3.78;;;18.00;99.90;;;;;;5087450;28;20024;-76
2022/07/29 03:07:31;;;;;;;12.30;3.72;;;18.00;99.90;;;;;;5105407;28;20355;-82
2022/07/29 03:09:58;;;;;;;3.60;3.10;;;17.90;99.90;;;;;;5103381;28;20120;-74
2022/07/29 03:12:24;;;;;;;7.45;3.97;;;17.90;99.90;;;;;;5099299;28;20027;-79
2022/07/29 03:14:50;;;;;;;4.30;3.90;;;17.90;99.90;;;;;;5078750;28;20443;-76
2022/07/29 03:17:16;;;;;;;4.05;3.20;;;17.90;99.90;;;;;;5105918;28;20011;-75
2022/07/29 03:19:42;;;;;;;6.65;3.83;;;17.90;99.90;;;;;;5095087;28;20027;-75
2022/07/29 03:22:09;;;;;;;5.32;3.15;;;18.00;99.90;;;;;;5096567;28;20036;-77
2022/07/29 03:24:36;;;;;;;3.88;3.30;;;18.00;99.90;;;;;;5081268;28;20051;-74
2022/07/29 03:27:03;;;;;;;6.07;3.10;;;18.00;99.90;;;;;;5093608;28;20040;-76
2022/07/29 03:29:29;;;;;;;6.13;3.65;;;18.00;99.90;;;;;;5094325;28;20124;-75
2022/07/29 03:31:55;;;;;;;3.92;3.58;;;18.10;99.90;;;;;;5101639;28;20030;-75
2022/07/29 03:34:21;;;;;;;6.15;3.38;;;18.10;99.90;;;;;;5086611;28;20539;-76
2022/07/29 03:36:47;;;;;;;3.60;3.05;;;18.10;99.90;;;;;;5106234;28;20032;-78
2022/07/29 03:39:18;;;;;;;4.63;3.70;;;18.60;99.90;;;;;;5112519;28;20028;-78
2022/07/29 03:41:46;;;;;;;4.10;3.55;;;19.10;99.90;;;;;;5106847;28;20035;-78
2022/07/29 03:44:14;;;;;;;4.30;3.90;;;19.40;99.90;;;;;;5103468;28;20029;-76
2022/07/29 03:46:42;;;;;;;4.07;3.50;;;19.50;99.90;;;;;;5108830;28;20107;-74
2022/07/29 03:49:10;;;;;;;6.05;3.30;;;19.40;99.90;;;;;;5094910;28;20450;-75
2022/07/29 03:51:36;;;;;;;2.97;2.70;;;19.40;99.90;;;;;;5093275;28;20027;-77
2022/07/29 03:54:04;;;;;;;2.75;2.53;;;19.50;99.90;;;;;;5101453;28;20016;-75
2022/07/29 03:56:31;;;;;;;3.92;3.50;;;19.70;99.90;;;;;;5097343;28;20031;-74
2022/07/29 03:58:58;;;;;;;3.28;2.92;;;19.60;99.90;;;;;;5097073;28;20073;-77
2022/07/29 04:01:25;;;;;;;4.95;2.92;;;19.80;99.90;;;;;;5096301;28;20019;-76
2022/07/29 04:03:51;;;;;;;4.45;3.20;;;19.80;99.90;;;;;;5105955;28;20359;-74
2022/07/29 04:06:17;;;;;;;3.13;2.88;;;19.70;99.90;;;;;;5100983;28;20459;-77
2022/07/29 04:08:42;;;;;;;6.32;3.33;;;19.70;99.90;;;;;;5097999;28;20050;-77
2022/07/29 04:11:08;;;;;;;3.22;2.92;;;19.80;99.90;;;;;;5095890;28;20027;-78
2022/07/29 04:13:33;;;;;;;3.60;3.30;;;19.80;99.90;;;;;;5104499;28;20028;-77
2022/07/29 04:15:59;;;;;;;4.90;2.80;;;19.70;99.90;;;;;;5112536;28;20023;-77
2022/07/29 04:18:25;;;;;;;3.08;2.88;;;19.80;99.90;;;;;;5092910;28;20136;-78
2022/07/29 04:20:51;;;;;;;4.60;3.58;;;19.80;99.90;;;;;;5092384;28;20104;-78
2022/07/29 04:23:16;;;;;;;3.88;3.13;;;20.00;99.90;;;;;;5078901;28;20111;-76
2022/07/29 04:25:43;;;;;;;3.80;3.17;;;20.10;99.90;;;;;;5092485;28;20031;-78
2022/07/29 04:28:09;;;;;;;3.80;3.00;;;20.10;99.90;;;;;;5092140;28;20032;-77
2022/07/29 04:30:37;;;;;;;3.47;3.17;;;20.20;99.90;;;;;;5084247;28;20111;-77
2022/07/29 04:33:04;;;;;;;4.07;3.05;;;20.30;99.90;;;;;;5092178;28;20028;-77
2022/07/29 04:35:33;;;;;;;3.67;2.75;;;20.10;99.90;;;;;;5092108;28;20031;-78
2022/07/29 04:37:58;;;;;;;3.15;2.83;;;20.10;99.90;;;;;;5091971;28;20063;-76
2022/07/29 04:40:24;;;;;;;5.43;3.63;;;19.90;99.90;;;;;;5073579;28;20055;-78
2022/07/29 04:42:52;;;;;;;3.55;3.00;;;19.80;99.90;;;;;;5092164;28;20050;-76
2022/07/29 04:45:18;;;;;;;3.63;3.00;;;19.70;99.90;;;;;;5091191;28;20020;-78
2022/07/29 04:47:43;;;;;;;3.53;3.20;;;19.80;99.90;;;;;;5091592;28;20377;-78
2022/07/29 04:50:09;;;;;;;7.50;3.10;;;19.90;99.90;;;;;;5075000;28;20039;-75
2022/07/29 04:52:35;;;;;;;3.90;3.30;;;19.90;99.90;;;;;;5091954;28;20031;-77
2022/07/29 04:55:03;;;;;;;6.38;3.83;;;20.00;99.90;;;;;;5092237;28;20026;-77
2022/07/29 04:57:28;;;;;;;4.05;2.92;;;20.00;99.90;;;;;;5091378;28;20024;-78
2022/07/29 04:59:54;;;;;;;3.17;2.92;;;19.80;99.90;;;;;;5092900;28;20020;-74
2022/07/29 05:02:19;;;;;;;5.25;3.08;;;19.70;99.90;;;;;;5091565;28;20032;-75
2022/07/29 05:04:45;;;;;;;3.72;3.42;;;19.50;99.90;;;;;;5083481;28;20032;-81
2022/07/29 05:07:11;;;;;;;6.05;4.53;;;19.30;99.90;;;;;;5091195;28;20020;-73
2022/07/29 05:09:36;;;;;;;2.95;2.72;;;19.20;99.90;;;;;;5091874;28;20063;-75
2022/07/29 05:12:02;;;;;;;7.45;3.67;;;19.20;99.90;;;;;;5092245;28;20488;-75
2022/07/29 05:14:28;;;;;;;3.75;3.35;;;19.20;99.90;;;;;;5091808;28;20484;-76
2022/07/29 05:16:56;;;;;;;3.72;3.42;;;19.30;99.90;;;;;;5091872;28;20024;-76
2022/07/29 05:19:22;;;;;;;6.60;3.10;;;19.40;99.90;;;;;;5091433;28;20052;-76
2022/07/29 05:21:48;;;;;;;4.68;3.28;;;19.80;99.90;;;;;;5091339;28;20463;-77
2022/07/29 05:24:14;;;;;;;3.63;2.88;;;20.00;99.90;;;;;;5091821;28;20028;-75
2022/07/29 05:26:40;;;;;;;3.30;3.00;;;20.00;99.90;;;;;;5091310;28;20149;-74
2022/07/29 05:29:05;;;;;;;5.20;3.88;;;20.00;99.90;;;;;;5091632;28;20055;-75
2022/07/29 05:31:31;;;;;;;6.35;3.53;;;19.80;99.90;;;;;;5091920;28;20031;-77
2022/07/29 05:33:57;;;;;;;7.15;4.03;;;19.80;99.90;;;;;;5091939;28;20036;-76
2022/07/29 05:36:22;;;;;;;3.97;3.47;;;19.80;99.90;;;;;;5091820;28;20032;-77
2022/07/29 05:38:48;;;;;;;5.20;4.65;;;20.00;99.90;;;;;;5091485;28;20028;-77
2022/07/29 05:41:14;;;;;;;4.43;3.80;;;20.10;99.90;;;;;;5091780;28;20055;-78
2022/07/29 05:43:40;;;;;;;6.50;4.05;;;20.30;99.90;;;;;;5091525;28;20028;-78
2022/07/29 05:46:05;;;;;;;5.00;4.13;;;20.30;99.90;;;;;;5091575;28;20464;-76
2022/07/29 05:48:31;;;;;;;4.78;4.18;;;20.40;99.90;;;;;;5091451;28;20417;-80
2022/07/29 05:50:57;;;;;;;4.15;3.75;;;20.50;99.90;;;;;;5091235;28;20077;-72
2022/07/29 05:53:23;;;;;;;5.60;3.65;;;20.60;99.90;;;;;;5091517;28;20035;-73
2022/07/29 05:55:49;;;;;;;4.47;3.80;;;20.60;99.90;;;;;;5091427;28;20036;-72
2022/07/29 05:58:15;;;;;;;4.32;3.92;;;20.50;99.90;;;;;;5095853;28;20028;-72
2022/07/29 06:00:41;;;;;;;4.32;3.97;;;20.60;99.90;;;;;;5095496;28;20024;-75
2022/07/29 06:03:06;;;;;;;6.72;4.40;;;20.70;99.90;;;;;;5095497;28;20035;-72
2022/07/29 06:05:32;;;;;;;6.30;3.78;;;20.80;99.90;;;;;;5095782;28;20383;-71
2022/07/29 06:07:57;;;;;;;6.32;3.70;;;20.90;99.90;;;;;;5095271;28;20038;-72
2022/07/29 06:10:24;;;;;;;4.95;4.10;;;21.00;99.90;;;;;;5091167;28;20032;-72
2022/07/29 06:12:50;;;;;;;4.70;3.78;;;21.00;99.90;;;;;;5095255;28;20443;-73
2022/07/29 06:15:15;;;;;;;4.22;3.65;;;21.20;99.90;;;;;;5094698;28;20079;-74
2022/07/29 06:17:41;;;;;;;4.43;4.03;;;21.50;99.90;;;;;;5094779;28;20093;-75
2022/07/29 06:20:07;;;;;;;6.72;3.58;;;21.80;99.90;;;;;;5085071;28;20490;-74
2022/07/29 06:22:33;;;;;;;4.40;4.00;;;22.10;99.90;;;;;;5095218;28;20081;-75
2022/07/29 06:24:58;;;;;;;4.70;3.78;;;22.20;99.90;;;;;;5094677;28;20032;-76
2022/07/29 06:27:24;;;;;;;4.22;3.83;;;;;;;;;;5094640;28;20016;-76
2022/07/29 06:29:50;;;;;;;4.85;3.63;;;22.60;99.90;;;;;;5095428;28;20028;-79
2022/07/29 06:32:15;;;;;;;4.25;3.20;;;22.80;99.90;;;;;;5095005;28;20069;-79
2022/07/29 06:34:41;;;;;;;4.25;3.85;;;22.90;99.90;;;;;;5085098;28;20020;-81
2022/07/29 06:37:07;;;;;;;6.07;4.20;;;23.00;99.90;;;;;;5094689;28;20077;-77
2022/07/29 06:39:36;;;;;;;4.03;3.65;;;23.00;99.90;;;;;;5094846;28;20012;-78
2022/07/29 06:42:04;;;;;;;4.28;3.45;;;23.10;99.90;;;;;;5085895;28;20028;-80
2022/07/29 06:44:29;;;;;;;3.53;3.22;;;23.10;99.90;;;;;;5092732;28;20029;-77
2022/07/29 06:46:56;;;;;;;3.50;3.20;;;23.20;99.90;;;;;;5094379;28;20523;-78
2022/07/29 06:49:23;;;;;;;4.53;3.53;;;23.20;99.90;;;;;;5085342;28;20040;-79
2022/07/29 06:51:49;;;;;;;4.10;3.25;;;23.30;99.90;;;;;;5084319;28;20019;-79
2022/07/29 06:54:14;;;;;;;5.45;3.45;;;23.50;99.90;;;;;;5076806;28;20032;-77
2022/07/29 06:56:42;;;;;;;3.58;3.17;;;23.70;99.90;;;;;;5096430;28;20018;-77
2022/07/29 06:59:10;;;;;;;3.72;3.03;;;23.90;99.90;;;;;;5083740;28;20036;-76
2022/07/29 07:01:41;;;;;;;4.25;3.83;;;24.10;99.90;;;;;;5083011;28;20020;-77
2022/07/29 07:04:08;;;;;;;4.25;3.25;;;24.40;99.90;;;;;;5093819;28;20043;-78
2022/07/29 07:06:34;;;;;;;3.33;3.03;;;24.60;99.50;;;;;;5086445;28;20020;-80
2022/07/29 07:09:00;;;;;;;3.95;2.97;;;24.80;98.20;;;;;;5092455;28;20021;-78
2022/07/29 07:11:25;;;;;;;6.28;3.03;;;25.00;98.40;;;;;;5076852;28;20038;-79
2022/07/29 07:13:51;;;;;;;7.75;3.35;;;25.20;99.00;;;;;;5091627;28;20116;-79
2022/07/29 07:16:17;;;;;;;4.68;3.15;;;25.30;98.30;;;;;;5093704;28;20024;-79
2022/07/29 07:18:44;;;;;;;4.13;2.78;;;25.50;96.70;;;;;;5093953;28;20048;-79
2022/07/29 07:21:10;;;;;;;5.82;3.33;;;25.60;96.00;;;;;;5085107;28;20020;-80
2022/07/29 07:23:36;;;;;;;4.47;3.00;;;25.80;95.60;;;;;;5093852;28;20471;-81
2022/07/29 07:26:02;;;;;;;5.43;2.53;;;25.90;95.10;;;;;;5093756;28;20062;-80
2022/07/29 07:28:28;;;;;;;4.07;2.30;;;25.90;93.40;;;;;;5093493;28;20028;-80
2022/07/29 07:30:54;;;;;;;3.42;2.65;;;26.10;92.40;;;;;;5093558;28;20081;-79
2022/07/29 07:33:20;;;;;;;3.60;2.40;;;26.20;92.70;;;;;;5093261;28;20455;-79
2022/07/29 07:35:46;;;;;;;5.80;2.75;;;26.00;97.90;;;;;;5093581;28;20368;-79
2022/07/29 07:38:12;;;;;;;5.18;2.72;;;26.50;99.60;;;;;;5093674;28;20356;-80
2022/07/29 07:40:37;;;;;;;7.93;2.67;;;26.50;96.60;;;;;;5093393;28;20141;-79
2022/07/29 07:43:03;;;;;;;4.60;3.22;;;26.50;92.50;;;;;;5083479;28;20024;-80
2022/07/29 07:45:29;;;;;;;2.90;2.70;;;26.60;94.90;;;;;;5093171;28;20044;-77
2022/07/29 07:47:54;;;;;;;3.47;2.42;;;26.80;99.90;;;;;;5093615;28;20035;-79
2022/07/29 07:50:20;;;;;;;5.85;2.58;;;27.20;95.80;;;;;;5088761;28;20032;-80
2022/07/29 07:52:47;;;;;;;2.92;2.15;;;;;;;;;;5093342;28;20080;-77
2022/07/29 07:55:13;;;;;;;3.08;2.40;;;27.00;88.90;;;;;;5083569;28;20028;-78
2022/07/29 07:57:38;;;;;;;5.55;2.10;;;27.20;89.00;;;;;;5092861;28;20032;-79
2022/07/29 08:00:05;;;;;;;2.45;2.25;;;27.30;88.40;;;;;;5080367;28;20024;-79
2022/07/29 08:02:31;;;;;;;2.70;2.28;;;27.30;87.70;;;;;;5088664;28;20028;-80
2022/07/29 08:04:59;;;;;;;5.57;2.53;;;27.40;88.80;;;;;;5092800;28;20073;-79
2022/07/29 08:07:24;;;;;;;2.67;2.28;;;27.50;87.80;;;;;;5092480;28;20020;-81
2022/07/29 08:09:50;;;;;;;2.75;2.10;;;27.60;87.70;;;;;;5084703;28;20036;-82
2022/07/29 08:12:16;;;;;;;4.15;2.17;;;27.80;87.80;;;;;;5092763;28;20032;-80
2022/07/29 08:14:41;;;;;;;2.13;1.88;;;27.90;85.70;;;;;;5092766;28;20055;-81
2022/07/29 08:17:07;;;;;;;5.32;2.13;;;28.00;84.00;;;;;;5092439;28;20027;-79
2022/07/29 08:19:33;;;;;;;2.53;2.00;;;28.00;80.00;;;;;;5092439;28;20084;-80
2022/07/29 08:21:58;;;;;;;2.30;2.08;;;28.00;79.60;;;;;;5092811;28;20102;-78
2022/07/29 08:27:11;;;;;;;2.65;1.65;;;28.00;80.60;;;;;;5085948;28;20444;-80
2022/07/29 08:29:37;;;;;;;2.33;1.75;;;28.00;79.20;;;;;;5091655;28;20078;-79
2022/07/29 08:32:04;;;;;;;2.67;1.65;;;28.00;78.50;;;;;;5092385;28;20035;-78
2022/07/29 08:34:29;;;;;;;5.13;1.83;;;28.10;79.20;;;;;;5092143;28;20020;-79
2022/07/29 08:36:55;;;;;;;5.30;1.65;;;28.10;78.00;;;;;;5090964;28;20099;-80
2022/07/29 08:39:22;;;;;;;2.28;2.08;;;28.20;77.30;;;;;;5092168;28;20032;-80
2022/07/29 08:41:48;;;;;;;5.28;2.00;;;;;;;;;;5076809;28;20490;-75
2022/07/29 08:44:17;;;;;;;2.53;1.60;;;28.50;75.40;;;;;;5092511;28;20466;-75
2022/07/29 08:46:42;;;;;;;2.38;1.95;;;28.50;75.10;;;;;;5092262;28;20058;-77
2022/07/29 08:49:08;;;;;;;1.80;1.48;;;28.60;75.50;;;;;;5092064;28;20044;-75
2022/07/29 08:51:35;;;;;;;2.50;1.77;;;28.70;75.70;;;;;;5092438;28;20023;-76
2022/07/29 08:54:02;;;;;;;3.35;1.98;;;28.80;75.50;;;;;;5092076;28;20023;-75
2022/07/29 08:56:28;;;;;;;2.95;2.00;;;28.90;75.20;;;;;;5092272;28;20047;-75
2022/07/29 08:58:57;;;;;;;4.40;1.60;;;29.00;73.60;;;;;;5092451;28;20165;-74
2022/07/29 09:01:26;;;;;;;2.63;1.65;;;29.00;74.90;;;;;;5092081;28;20044;-75
2022/07/29 09:03:55;;;;;;;3.17;1.90;;;29.10;74.90;;;;;;5092240;28;20031;-77
2022/07/29 09:06:22;;;;;;;1.50;1.40;;;29.10;74.20;;;;;;5091914;28;20024;-75
2022/07/29 09:08:49;;;;;;;1.90;1.40;;;29.20;72.10;;;;;;5092102;28;20683;-76
2022/07/29 09:11:15;;;;;;;1.65;1.55;;;29.20;70.60;;;;;;5091703;28;20031;-75
2022/07/29 09:13:41;;;;;;;2.05;1.83;;;29.10;70.30;;;;;;5092307;28;20049;-75
2022/07/29 09:16:06;;;;;;;1.42;1.30;;;29.10;68.40;;;;;;5091342;28;20027;-77
2022/07/29 09:18:43;;;;;;;1.35;1.25;;;29.20;69.20;;;;;;5091602;28;20447;-76
2022/07/29 09:24:14;;;;;;;2.17;1.38;;;29.30;67.50;;;;;;5085328;28;20116;-78
2022/07/29 09:26:45;;;;;;;1.50;1.20;;;29.40;68.70;;;;;;5090986;28;20118;-80
2022/07/29 09:29:17;;;;;;;1.60;1.50;;;29.40;68.00;;;;;;5091508;28;20044;-78
2022/07/29 09:31:49;;;;;;;1.40;1.30;;;29.40;67.50;;;;;;5082820;28;20016;-76
2022/07/29 09:34:20;;;;;;;3.53;1.45;;;29.50;67.50;;;;;;5091754;28;20043;-79
2022/07/29 09:36:49;;;;;;;2.17;1.60;;;29.50;66.20;;;;;;5083362;28;20027;-79
2022/07/29 09:39:26;;;;;;;1.48;1.38;;;29.70;65.10;;;;;;5091564;28;20028;-74
2022/07/29 09:41:54;;;;;;;1.80;1.13;;;29.80;65.30;;;;;;5084464;28;20034;-78
2022/07/29 09:44:20;;;;;;;4.70;1.40;;;29.90;63.60;;;;;;5095294;28;20471;-79
2022/07/29 09:47:12;;;;;;;3.22;1.60;;;30.00;63.30;;;;;;5091506;28;20039;-80
2022/07/29 09:49:59;;;;;;;3.30;1.60;;;30.10;62.70;;;;;;5086978;28;20180;-79
2022/07/29 09:52:26;;;;;;;1.67;1.58;;;30.20;63.50;;;;;;5090905;28;20459;-79
2022/07/29 09:54:53;;;;;;;1.45;1.35;;;30.20;63.70;;;;;;5090971;28;20024;-80
2022/07/29 09:57:27;;;;;;;2.28;1.60;;;30.30;65.20;;;;;;5091245;28;20032;-79
2022/07/29 10:00:01;;;;;;;1.75;1.52;;;30.30;64.40;;;;;;5091332;28;20545;-78
2022/07/29 10:02:32;;;;;;;2.20;1.53;;;30.40;64.90;;;;;;5091232;28;20032;-80
2022/07/29 10:04:58;;;;;;;3.22;1.40;;;30.40;64.60;;;;;;5081239;28;20027;-79
2022/07/29 10:07:24;;;;;;;1.20;1.10;;;30.50;66.10;;;;;;5081668;28;20028;-80
2022/07/29 10:09:54;;;;;;;1.40;1.30;;;30.60;63.60;;;;;;5091036;28;20038;-78
2022/07/29 10:12:20;;;;;;;1.70;1.42;;;30.70;61.50;;;;;;5075441;28;20123;-80
2022/07/29 10:14:47;;;;;;;2.28;2.10;;;30.60;62.30;;;;;;5079957;28;20106;-80
2022/07/29 10:17:12;;;;;;;2.88;1.73;;;30.40;62.30;;;;;;5091343;28;20020;-80
2022/07/29 10:19:39;;;;;;;1.92;1.50;;;30.30;62.20;;;;;;5091611;28;20391;-80
2022/07/29 10:22:08;;;;;;;1.60;1.50;;;30.10;63.20;;;;;;5080264;28;20501;-80
2022/07/29 10:24:35;;;;;;;2.28;1.55;;;30.10;63.90;;;;;;5091181;28;20024;-79
2022/07/29 10:27:02;;;;;;;3.55;1.65;;;30.00;64.30;;;;;;5082668;28;20089;-80
2022/07/29 10:29:31;;;;;;;1.67;1.58;;;29.90;64.50;;;;;;5091087;28;20028;-77
2022/07/29 10:32:15;;;;;;;2.33;1.58;;;29.90;65.70;;;;;;5089475;28;20111;-80
2022/07/29 10:35:05;;;;;;;1.83;1.67;;;29.80;65.40;;;;;;5085904;28;20106;-78
2022/07/29 10:37:47;;;;;;;6.40;1.70;;;29.80;65.50;;;;;;5084044;28;20032;-77
2022/07/29 10:43:22;;;;;;;3.05;1.52;;;29.90;67.60;;;;;;5091371;28;20539;-80
2022/07/29 10:45:49;;;;;;;2.10;1.40;;;29.90;66.70;;;;;;5095136;28;20020;-80
2022/07/29 10:48:15;;;;;;;1.98;1.70;;;29.90;67.30;;;;;;5094629;28;20077;-79
2022/07/29 10:50:56;;;;;;;2.38;1.40;;;29.90;67.00;;;;;;5090861;28;20024;-79
2022/07/29 10:53:23;;;;;;;3.33;1.60;;;29.90;65.60;;;;;;5094657;28;20085;-79
2022/07/29 10:55:50;;;;;;;2.30;1.40;;;29.80;65.10;;;;;;5084659;28;20020;-79
2022/07/29 10:58:17;;;;;;;1.95;1.50;;;29.80;64.80;;;;;;5076417;28;20035;-80
2022/07/29 11:00:43;;;;;;;1.42;1.33;;;29.80;65.10;;;;;;5077558;28;20031;-79
2022/07/29 11:03:09;;;;;;;2.13;1.83;;;29.80;65.90;;;;;;5091984;28;20535;-79
2022/07/29 11:05:55;;;;;;;1.65;1.20;;;29.90;63.20;;;;;;5094398;28;20024;-79
2022/07/29 11:08:23;;;;;;;1.50;0.95;;;29.90;62.60;;;;;;5093994;28;20028;-80
2022/07/29 11:10:50;;;;;;;4.85;1.23;;;30.00;62.40;;;;;;5094454;28;20050;-79
2022/07/29 11:13:41;;;;;;;2.13;1.05;;;30.20;62.60;;;;;;5094103;28;20025;-79
2022/07/29 11:16:07;;;;;;;1.70;1.25;;;30.40;62.30;;;;;;5088261;28;20085;-80
2022/07/29 11:18:33;;;;;;;1.35;1.13;;;30.50;61.40;;;;;;5094003;28;20044;-80
2022/07/29 11:20:59;;;;;;;1.20;1.10;;;30.70;61.30;;;;;;5076653;28;20145;-79
2022/07/29 11:23:31;;;;;;;3.05;1.38;;;31.00;60.70;;;;;;5093793;28;20398;-78
2022/07/29 11:26:27;;;;;;;1.58;1.48;;;31.10;58.70;;;;;;5085402;28;20020;-79
2022/07/29 11:29:16;;;;;;;1.50;1.40;;;31.20;58.00;;;;;;5093271;28;20040;-80
2022/07/29 11:31:43;;;;;;;1.38;1.27;;;31.20;58.20;;;;;;5093454;28;20463;-79
2022/07/29 11:34:40;;;;;;;2.05;1.45;;;31.10;58.70;;;;;;5093658;28;20101;-80
2022/07/29 11:37:12;;;;;;;4.22;1.40;;;31.00;58.50;;;;;;5092954;28;20031;-78
2022/07/29 11:39:42;;;;;;;3.38;1.42;;;30.80;59.50;;;;;;5093251;28;20031;-78
2022/07/29 11:42:16;;;;;;;1.60;1.15;;;30.70;60.00;;;;;;5093480;28;20103;-80
2022/07/29 11:44:59;;;;;;;1.30;1.13;;;30.60;60.10;;;;;;5093659;28;20108;-78
2022/07/29 11:47:31;;;;;;;1.77;1.42;;;30.60;57.90;;;;;;5086057;28;20111;-78
2022/07/29 11:49:58;;;;;;;2.17;1.52;;;30.60;58.90;;;;;;5093284;28;20433;-80
2022/07/29 11:52:36;;;;;;;3.47;1.10;;;30.60;59.50;;;;;;5093635;28;20115;-78
2022/07/29 11:55:05;;;;;;;1.40;1.30;;;30.60;61.20;;;;;;5092847;28;20362;-79
2022/07/29 11:57:31;;;;;;;1.58;1.17;;;30.60;61.90;;;;;;5093140;28;20026;-79
2022/07/29 11:59:58;;;;;;;1.00;1.00;;;30.70;61.30;;;;;;5093293;28;20023;-80
2022/07/29 12:02:23;;;;;;;1.98;1.48;;;30.90;60.60;;;;;;5092690;28;20236;-79
2022/07/29 12:04:51;;;;;;;1.38;1.27;;;31.00;60.10;;;;;;5092665;28;20455;-79
2022/07/29 12:07:17;;;;;;;1.45;1.10;;;31.00;59.50;;;;;;5091640;28;20383;-77
2022/07/29 12:09:52;;;;;;;2.22;1.30;;;31.10;58.40;;;;;;5092770;28;20118;-79
2022/07/29 12:12:19;;;;;;;1.20;1.10;;;31.20;57.30;;;;;;5092301;28;20034;-79
2022/07/29 12:14:47;;;;;;;1.20;1.10;;;31.10;56.60;;;;;;5093082;28;20024;-79
2022/07/29 12:17:34;;;;;;;1.88;1.23;;;31.10;56.70;;;;;;5079656;28;20394;-79
2022/07/29 12:20:03;;;;;;;1.48;1.38;;;31.10;56.10;;;;;;5071018;28;20105;-80
2022/07/29 12:22:37;;;;;;;1.42;1.25;;;31.10;56.90;;;;;;5072524;28;20032;-80
2022/07/29 12:25:09;;;;;;;3.50;1.50;;;31.10;56.40;;;;;;5072831;28;20039;-80
2022/07/29 12:27:35;;;;;;;4.03;1.10;;;31.00;57.70;;;;;;5072601;28;20024;-78
2022/07/29 12:30:05;;;;;;;3.88;1.20;;;31.00;56.50;;;;;;5072010;28;20063;-85
2022/07/29 12:32:35;;;;;;;2.30;1.48;;;31.00;57.10;;;;;;5078667;28;20046;-78
2022/07/29 12:35:06;;;;;;;1.70;1.00;;;30.80;58.20;;;;;;5072991;28;20031;-84
2022/07/29 12:37:36;;;;;;;1.20;1.10;;;30.80;57.10;;;;;;5067579;28;20413;-78
2022/07/29 12:40:07;;;;;;;1.40;1.30;;;30.70;56.70;;;;;;5066469;28;20021;-79
2022/07/29 12:42:33;;;;;;;2.50;1.58;;;30.70;58.60;;;;;;5064794;28;20028;-79
2022/07/29 12:44:59;;;;;;;3.85;1.50;;;30.70;58.60;;;;;;5069552;28;20024;-79
2022/07/29 12:47:25;;;;;;;2.50;1.55;;;30.70;58.00;;;;;;5063324;28;20027;-76
2022/07/29 12:50:06;;;;;;;7.55;1.30;;;30.70;57.30;;;;;;5066557;28;20043;-75
2022/07/29 12:52:34;;;;;;;2.53;1.60;;;30.70;57.70;;;;;;5060535;28;20020;-79
2022/07/29 12:55:00;;;;;;;2.55;1.45;;;30.70;59.20;;;;;;5065585;28;20041;-79
2022/07/29 12:57:26;;;;;;;1.45;1.35;;;30.70;59.10;;;;;;5068670;28;20017;-78
2022/07/29 13:00:10;;;;;;;2.00;1.48;;;30.70;59.60;;;;;;5058210;28;20052;-79
2022/07/29 13:02:36;;;;;;;2.78;1.30;;;30.50;60.30;;;;;;5064708;28;20193;-79
2022/07/29 13:05:03;;;;;;;2.80;1.55;;;30.50;73.30;;;;;;5069930;28;20431;-78
2022/07/29 13:07:32;;;;;;;3.40;1.52;;;30.50;67.60;;;;;;5067440;28;20104;-78
2022/07/29 13:10:12;;;;;;;2.00;1.30;;;30.40;58.60;;;;;;5067091;28;20062;-78